createdAt,value
2018-11-14T00:00:31.950Z,9.60
2018-11-14T00:03:01.860Z,9.60
2018-11-14T00:05:30.521Z,9.70
2018-11-14T00:07:59.271Z,9.70
2018-11-14T00:10:27.893Z,9.60
2018-11-14T00:12:56.509Z,9.50
2018-11-14T00:15:26.120Z,9.60
2018-11-14T00:17:54.887Z,9.60
2018-11-14T00:20:23.671Z,9.60
2018-11-14T00:22:52.572Z,9.70
2018-11-14T00:25:21.207Z,9.70
2018-11-14T00:27:49.933Z,9.80
2018-11-14T00:30:22.879Z,9.80
2018-11-14T00:32:51.550Z,9.80
2018-11-14T00:35:20.182Z,9.70
2018-11-14T00:37:49.296Z,9.70
2018-11-14T00:40:18.922Z,9.70
2018-11-14T00:42:48.003Z,9.70
2018-11-14T00:45:19.245Z,9.70
2018-11-14T00:47:48.647Z,9.70
2018-11-14T00:50:18.022Z,9.80
2018-11-14T00:52:46.936Z,9.80
2018-11-14T00:55:17.626Z,9.80
2018-11-14T00:57:47.293Z,9.80
2018-11-14T01:00:18.552Z,9.70
2018-11-14T01:02:47.320Z,9.80
2018-11-14T01:05:17.045Z,9.80
2018-11-14T01:07:45.771Z,9.80
2018-11-14T01:10:16.304Z,9.90
2018-11-14T01:12:45.625Z,9.80
2018-11-14T01:15:16.375Z,9.70
2018-11-14T01:17:45.020Z,9.70
2018-11-14T01:20:15.369Z,9.80
2018-11-14T01:22:44.560Z,9.80
2018-11-14T01:25:14.473Z,9.80
2018-11-14T01:27:44.007Z,9.80
2018-11-14T01:30:15.207Z,9.70
2018-11-14T01:32:44.857Z,9.80
2018-11-14T01:35:13.676Z,9.80
2018-11-14T01:37:42.344Z,9.80
2018-11-14T01:40:16.232Z,9.80
2018-11-14T01:42:46.949Z,9.70
2018-11-14T01:45:15.616Z,9.80
2018-11-14T01:47:44.354Z,9.80
2018-11-14T01:50:13.011Z,9.80
2018-11-14T01:52:41.651Z,9.70
2018-11-14T01:55:12.382Z,9.80
2018-11-14T01:57:41.028Z,9.80
2018-11-14T02:00:12.428Z,9.70
2018-11-14T02:02:41.171Z,9.60
2018-11-14T02:05:10.315Z,9.60
2018-11-14T02:07:38.947Z,9.60
2018-11-14T02:10:11.229Z,9.70
2018-11-14T02:12:40.487Z,9.60
2018-11-14T02:15:12.248Z,9.60
2018-11-14T02:17:41.755Z,9.60
2018-11-14T02:20:11.051Z,9.60
2018-11-14T02:22:40.035Z,9.50
2018-11-14T02:25:09.538Z,9.40
2018-11-14T02:27:38.147Z,9.40
2018-11-14T02:30:11.366Z,9.30
2018-11-14T02:32:40.132Z,9.20
2018-11-14T02:35:09.116Z,9.10
2018-11-14T02:37:38.197Z,9.10
2018-11-14T02:40:09.013Z,9.20
2018-11-14T02:42:38.668Z,9.20
2018-11-14T02:45:07.589Z,9.20
2018-11-14T02:47:36.219Z,9.10
2018-11-14T02:50:04.963Z,9.10
2018-11-14T02:52:33.607Z,9.10
2018-11-14T02:55:02.243Z,9.10
2018-11-14T02:57:30.893Z,9.10
2018-11-14T02:59:59.527Z,9.10
2018-11-14T03:02:28.165Z,9.10
2018-11-14T03:04:56.842Z,9.10
2018-11-14T03:07:25.461Z,9.10
2018-11-14T03:09:54.123Z,9.10
2018-11-14T03:12:22.881Z,9.10
2018-11-14T03:14:51.544Z,9.20
2018-11-14T03:17:20.187Z,9.20
2018-11-14T03:19:48.876Z,9.20
2018-11-14T03:22:17.505Z,9.20
2018-11-14T03:24:46.123Z,9.20
2018-11-14T03:27:14.837Z,9.20
2018-11-14T03:29:43.475Z,9.20
2018-11-14T03:32:12.133Z,9.20
2018-11-14T03:34:40.821Z,9.20
2018-11-14T03:37:09.445Z,9.20
2018-11-14T03:39:38.093Z,9.20
2018-11-14T03:42:06.783Z,9.20
2018-11-14T03:44:35.388Z,9.20
2018-11-14T03:47:04.079Z,9.20
2018-11-14T03:49:32.738Z,9.20
2018-11-14T03:52:01.381Z,9.00
2018-11-14T03:54:29.996Z,9.00
2018-11-14T03:56:58.693Z,9.00
2018-11-14T03:59:27.310Z,9.00
2018-11-14T04:01:55.979Z,9.10
2018-11-14T04:04:24.619Z,9.10
2018-11-14T04:06:53.310Z,9.00
2018-11-14T04:09:22.079Z,9.10
2018-11-14T04:11:50.686Z,9.10
2018-11-14T04:14:19.421Z,9.10
2018-11-14T04:16:48.075Z,9.00
2018-11-14T04:19:16.738Z,9.10
2018-11-14T04:21:45.420Z,9.00
2018-11-14T04:24:14.058Z,9.00
2018-11-14T04:26:42.771Z,9.00
2018-11-14T04:29:11.450Z,8.90
2018-11-14T04:31:40.090Z,8.90
2018-11-14T04:34:11.458Z,8.90
2018-11-14T04:36:40.148Z,8.90
2018-11-14T04:39:09.873Z,8.90
2018-11-14T04:41:38.527Z,8.90
2018-11-14T04:44:07.483Z,8.90
2018-11-14T04:46:36.188Z,8.90
2018-11-14T04:49:05.032Z,8.90
2018-11-14T04:51:33.700Z,8.90
2018-11-14T04:54:02.322Z,8.90
2018-11-14T04:56:31.010Z,8.90
2018-11-14T04:58:59.684Z,8.90
2018-11-14T05:01:28.304Z,8.90
2018-11-14T05:03:56.990Z,8.70
2018-11-14T05:06:25.690Z,8.80
2018-11-14T05:08:54.377Z,8.80
2018-11-14T05:11:23.085Z,8.70
2018-11-14T05:13:52.076Z,8.80
2018-11-14T05:16:21.007Z,8.70
2018-11-14T05:18:49.706Z,8.70
2018-11-14T05:21:18.358Z,8.60
2018-11-14T05:23:46.972Z,8.70
2018-11-14T05:26:15.665Z,8.80
2018-11-14T05:28:44.286Z,8.70
2018-11-14T05:31:12.978Z,8.80
2018-11-14T05:33:41.622Z,8.80
2018-11-14T05:36:10.260Z,8.70
2018-11-14T05:38:38.904Z,8.70
2018-11-14T05:41:07.549Z,8.70
2018-11-14T05:43:36.185Z,8.70
2018-11-14T05:46:05.208Z,8.60
2018-11-14T05:48:33.875Z,8.70
2018-11-14T05:51:02.681Z,8.70
2018-11-14T05:53:31.377Z,8.60
2018-11-14T05:56:00.069Z,8.60
2018-11-14T05:58:28.745Z,8.70
2018-11-14T06:00:57.469Z,8.70
2018-11-14T06:03:26.125Z,8.60
2018-11-14T06:05:54.733Z,8.70
2018-11-14T06:08:23.369Z,8.70
2018-11-14T06:10:52.213Z,8.70
2018-11-14T06:13:20.881Z,8.80
2018-11-14T06:15:49.569Z,8.70
2018-11-14T06:18:18.249Z,8.70
2018-11-14T06:20:46.883Z,8.70
2018-11-14T06:23:15.551Z,8.70
2018-11-14T06:25:44.329Z,8.60
2018-11-14T06:28:14.583Z,8.70
2018-11-14T06:30:43.297Z,8.70
2018-11-14T06:33:12.681Z,8.80
2018-11-14T06:35:41.472Z,8.70
2018-11-14T06:38:10.226Z,8.70
2018-11-14T06:40:39.690Z,8.70
2018-11-14T06:43:09.278Z,8.70
2018-11-14T06:45:38.161Z,8.70
2018-11-14T06:48:07.109Z,8.80
2018-11-14T06:50:35.915Z,8.80
2018-11-14T06:53:06.030Z,8.70
2018-11-14T06:55:34.819Z,8.80
2018-11-14T06:58:03.626Z,8.80
2018-11-14T07:00:33.450Z,8.80
2018-11-14T07:03:03.483Z,8.80
2018-11-14T07:05:32.397Z,8.80
2018-11-14T07:08:01.163Z,8.80
2018-11-14T07:10:32.099Z,8.90
2018-11-14T07:13:06.977Z,8.80
2018-11-14T07:15:36.505Z,8.80
2018-11-14T07:18:06.479Z,8.80
2018-11-14T07:20:37.687Z,8.70
2018-11-14T07:23:06.674Z,8.80
2018-11-14T07:25:35.408Z,8.80
2018-11-14T07:28:04.320Z,8.90
2018-11-14T07:30:34.132Z,9.00
2018-11-14T07:33:09.208Z,9.00
2018-11-14T07:35:38.175Z,9.10
2018-11-14T07:38:43.172Z,9.00
2018-11-14T07:41:15.352Z,9.10
2018-11-14T07:43:44.748Z,9.10
2018-11-14T07:46:14.670Z,9.00
2018-11-14T07:48:44.344Z,9.00
2018-11-14T07:51:13.031Z,9.00
2018-11-14T07:53:41.823Z,9.10
2018-11-14T07:56:10.502Z,9.10
2018-11-14T07:58:40.734Z,9.10
2018-11-14T08:01:10.659Z,9.20
2018-11-14T08:03:40.624Z,9.20
2018-11-14T08:06:09.419Z,9.10
2018-11-14T08:08:38.117Z,9.20
2018-11-14T08:11:07.615Z,9.20
2018-11-14T08:13:37.620Z,9.30
2018-11-14T08:16:09.581Z,9.30
2018-11-14T08:18:41.913Z,9.30
2018-11-14T08:21:14.823Z,9.30
2018-11-14T08:23:48.252Z,9.40
2018-11-14T08:26:18.127Z,9.40
2018-11-14T08:28:49.053Z,9.30
2018-11-14T08:31:19.627Z,9.20
2018-11-14T08:33:49.156Z,9.30
2018-11-14T08:36:20.969Z,9.20
2018-11-14T08:38:51.209Z,9.30
2018-11-14T08:41:21.186Z,9.30
2018-11-14T08:43:50.724Z,9.30
2018-11-14T08:46:20.473Z,9.20
2018-11-14T08:48:51.424Z,9.20
2018-11-14T08:51:22.214Z,9.30
2018-11-14T08:53:51.653Z,9.40
2018-11-14T08:56:25.479Z,9.30
2018-11-14T08:58:54.182Z,9.40
2018-11-14T09:01:23.104Z,9.50
2018-11-14T09:04:15.402Z,9.40
2018-11-14T09:06:44.940Z,9.50
2018-11-14T09:09:14.743Z,9.50
2018-11-14T09:11:45.757Z,9.50
2018-11-14T09:14:16.268Z,9.50
2018-11-14T09:16:46.117Z,9.50
2018-11-14T09:19:16.854Z,9.50
2018-11-14T09:21:45.836Z,9.40
2018-11-14T09:24:17.952Z,9.50
2018-11-14T09:26:48.454Z,9.60
2018-11-14T09:29:17.284Z,9.60
2018-11-14T09:31:49.446Z,9.70
2018-11-14T09:34:22.893Z,9.80
2018-11-14T09:36:52.766Z,9.80
2018-11-14T09:39:22.773Z,9.70
2018-11-14T09:41:53.966Z,9.70
2018-11-14T09:44:24.179Z,9.60
2018-11-14T09:46:53.102Z,9.60
2018-11-14T09:49:22.211Z,9.70
2018-11-14T09:51:53.142Z,9.70
2018-11-14T09:54:22.301Z,9.80
2018-11-14T09:56:53.514Z,9.80
2018-11-14T09:59:22.584Z,9.90
2018-11-14T10:01:55.526Z,9.80
2018-11-14T10:04:26.809Z,9.60
2018-11-14T10:06:56.149Z,9.70
2018-11-14T10:09:26.522Z,9.70
2018-11-14T10:11:56.912Z,9.70
2018-11-14T10:14:26.713Z,9.70
2018-11-14T10:16:57.400Z,9.80
2018-11-14T10:19:28.616Z,9.80
2018-11-14T10:21:58.210Z,9.80
2018-11-14T10:24:27.856Z,9.70
2018-11-14T10:26:58.736Z,9.70
2018-11-14T10:29:32.544Z,9.70
2018-11-14T10:32:03.800Z,9.60
2018-11-14T10:34:33.452Z,9.60
2018-11-14T10:37:07.114Z,9.60
2018-11-14T10:39:36.729Z,9.60
2018-11-14T10:42:07.016Z,9.50
2018-11-14T10:47:14.062Z,9.40
2018-11-14T10:49:43.938Z,9.50
2018-11-14T10:52:13.494Z,9.50
2018-11-14T10:54:56.446Z,9.50
2018-11-14T10:57:25.511Z,9.40
2018-11-14T10:59:57.820Z,9.40
2018-11-14T11:02:34.958Z,9.50
2018-11-14T11:05:09.872Z,9.50
2018-11-14T11:07:44.976Z,9.40
2018-11-14T11:10:18.974Z,9.40
2018-11-14T11:12:54.830Z,9.30
2018-11-14T11:15:32.814Z,9.30
2018-11-14T11:18:07.194Z,9.40
2018-11-14T11:20:38.496Z,9.50
2018-11-14T11:23:09.238Z,9.50
2018-11-14T11:25:41.760Z,9.50
2018-11-14T11:28:12.700Z,9.40
2018-11-14T11:30:43.830Z,9.50
2018-11-14T11:33:12.908Z,9.50
2018-11-14T11:35:43.152Z,9.50
2018-11-14T11:38:15.468Z,9.60
2018-11-14T11:40:44.940Z,9.60
2018-11-14T11:43:16.752Z,9.70
2018-11-14T11:45:49.078Z,9.70
2018-11-14T11:48:20.993Z,9.80
2018-11-14T11:50:55.455Z,9.70
2018-11-14T11:53:25.619Z,9.70
2018-11-14T11:55:55.833Z,9.70
2018-11-14T11:58:24.884Z,9.70
2018-11-14T12:00:55.173Z,9.80
2018-11-14T12:03:30.025Z,9.70
2018-11-14T12:06:00.135Z,9.70
2018-11-14T12:08:31.692Z,9.60
2018-11-14T12:11:02.443Z,9.50
2018-11-14T12:13:32.129Z,9.40
2018-11-14T12:16:01.133Z,9.30
2018-11-14T12:18:30.740Z,9.30
2018-11-14T12:20:59.914Z,9.20
2018-11-14T12:23:31.930Z,9.30
2018-11-14T12:26:00.985Z,9.30
2018-11-14T12:28:30.185Z,9.30
2018-11-14T12:30:59.403Z,9.30
2018-11-14T12:33:29.077Z,9.40
2018-11-14T12:35:58.096Z,9.40
2018-11-14T12:38:27.157Z,9.50
2018-11-14T12:40:57.454Z,9.50
2018-11-14T12:43:28.717Z,9.50
2018-11-14T12:45:59.499Z,9.40
2018-11-14T12:48:29.251Z,9.40
2018-11-14T12:50:59.796Z,9.40
2018-11-14T12:53:29.955Z,9.30
2018-11-14T12:56:00.075Z,9.30
2018-11-14T12:58:30.409Z,9.40
2018-11-14T13:01:00.006Z,9.30
2018-11-14T13:03:30.041Z,9.20
2018-11-14T13:06:02.155Z,9.20
2018-11-14T13:08:32.048Z,9.20
2018-11-14T13:11:03.603Z,9.10
2018-11-14T13:13:39.351Z,9.00
2018-11-14T13:16:08.490Z,9.00
2018-11-14T13:18:38.185Z,9.00
2018-11-14T13:21:07.836Z,9.10
2018-11-14T13:23:36.935Z,9.10
2018-11-14T13:26:08.245Z,9.20
2018-11-14T13:28:44.380Z,9.10
2018-11-14T13:31:13.457Z,9.20
2018-11-14T13:33:43.996Z,9.30
2018-11-14T13:36:13.861Z,9.30
2018-11-14T13:38:43.440Z,9.40
2018-11-14T13:41:13.508Z,9.40
2018-11-14T13:43:43.153Z,9.30
2018-11-14T13:46:12.962Z,9.30
2018-11-14T13:48:45.473Z,9.20
2018-11-14T13:51:17.712Z,9.20
2018-11-14T13:53:48.927Z,9.10
2018-11-14T13:56:22.849Z,9.10
2018-11-14T13:58:57.580Z,9.00
2018-11-14T14:01:38.103Z,9.00
2018-11-14T14:04:11.189Z,8.90
2018-11-14T14:06:42.377Z,8.90
2018-11-14T14:09:13.161Z,9.00
2018-11-14T14:11:42.743Z,8.90
2018-11-14T14:14:16.731Z,8.90
2018-11-14T14:16:46.000Z,8.90
2018-11-14T14:19:16.782Z,8.90
2018-11-14T14:21:45.596Z,8.90
2018-11-14T14:24:15.298Z,8.90
2018-11-14T14:26:44.067Z,8.80
2018-11-14T14:29:13.776Z,8.80
2018-11-14T14:31:42.559Z,8.80
2018-11-14T14:34:11.333Z,8.80
2018-11-14T14:36:40.087Z,8.80
2018-11-14T14:39:10.168Z,9.00
2018-11-14T14:41:38.924Z,9.00
2018-11-14T14:44:07.675Z,9.00
2018-11-14T14:46:36.521Z,9.10
2018-11-14T14:49:05.395Z,9.00
2018-11-14T14:51:34.117Z,9.00
2018-11-14T14:54:02.892Z,9.00
2018-11-14T14:56:31.907Z,9.00
2018-11-14T14:59:00.556Z,8.90
2018-11-14T15:01:29.325Z,8.80
2018-11-14T15:03:58.180Z,8.80
2018-11-14T15:06:26.913Z,8.80
2018-11-14T15:08:55.580Z,8.70
2018-11-14T15:11:24.845Z,8.80
2018-11-14T15:13:53.574Z,8.90
2018-11-14T15:16:22.304Z,8.90
2018-11-14T15:18:51.068Z,8.90
2018-11-14T15:21:19.841Z,8.80
2018-11-14T15:23:48.578Z,8.70
2018-11-14T15:26:17.545Z,8.80
2018-11-14T15:28:46.424Z,8.80
2018-11-14T15:31:15.099Z,8.70
2018-11-14T15:33:43.885Z,8.60
2018-11-14T15:36:12.648Z,8.70
2018-11-14T15:38:41.401Z,8.80
2018-11-14T15:41:10.193Z,8.70
2018-11-14T15:43:39.862Z,8.70
2018-11-14T15:46:08.675Z,8.60
2018-11-14T15:48:38.558Z,8.60
2018-11-14T15:51:07.309Z,8.70
2018-11-14T15:53:36.145Z,8.60
2018-11-14T15:56:05.067Z,8.60
2018-11-14T15:58:34.050Z,8.70
2018-11-14T16:01:02.929Z,8.60
2018-11-14T16:03:31.782Z,8.70
2018-11-14T16:06:00.600Z,8.70
2018-11-14T16:08:29.380Z,8.70
2018-11-14T16:10:58.543Z,8.70
2018-11-14T16:13:27.452Z,8.70
2018-11-14T16:15:57.070Z,8.80
2018-11-14T16:18:25.949Z,8.80
2018-11-14T16:20:54.751Z,8.80
2018-11-14T16:23:23.612Z,8.90
2018-11-14T16:25:52.529Z,8.80
2018-11-14T16:28:21.318Z,8.80
2018-11-14T16:30:50.198Z,8.70
2018-11-14T16:33:19.091Z,8.80
2018-11-14T16:35:47.812Z,8.80
2018-11-14T16:38:16.657Z,8.80
2018-11-14T16:40:45.399Z,8.80
2018-11-14T16:43:14.310Z,8.80
2018-11-14T16:45:43.699Z,8.90
2018-11-14T16:48:12.546Z,8.80
2018-11-14T16:50:41.369Z,8.80
2018-11-14T16:53:10.198Z,8.70
2018-11-14T16:55:39.128Z,8.70
2018-11-14T16:58:07.878Z,8.70
2018-11-14T17:00:36.864Z,8.70
2018-11-14T17:03:05.756Z,8.60
2018-11-14T17:05:34.621Z,8.70
2018-11-14T17:08:04.315Z,8.70
2018-11-14T17:10:33.062Z,8.60
2018-11-14T17:13:02.370Z,8.60
2018-11-14T17:15:31.167Z,8.60
2018-11-14T17:18:00.843Z,8.60
2018-11-14T17:20:29.714Z,8.70
2018-11-14T17:22:58.598Z,8.60
2018-11-14T17:25:27.448Z,8.70
2018-11-14T17:27:56.266Z,8.70
2018-11-14T17:30:27.266Z,8.80
2018-11-14T17:32:56.864Z,8.70
2018-11-14T17:35:25.699Z,8.70
2018-11-14T17:37:54.528Z,8.80
2018-11-14T17:40:26.413Z,8.80
2018-11-14T17:42:55.431Z,8.60
2018-11-14T17:45:28.073Z,8.80
2018-11-14T17:47:57.564Z,8.70
2018-11-14T17:50:28.772Z,8.70
2018-11-14T17:52:58.507Z,8.70
2018-11-14T17:55:27.372Z,8.70
2018-11-14T17:57:56.801Z,8.70
2018-11-14T18:00:26.923Z,8.70
2018-11-14T18:02:56.429Z,8.60
2018-11-14T18:05:26.404Z,8.50
2018-11-14T18:07:55.580Z,8.50
2018-11-14T18:10:25.618Z,8.40
2018-11-14T18:12:55.543Z,8.50
2018-11-14T18:15:24.376Z,8.50
2018-11-14T18:17:53.928Z,8.50
2018-11-14T18:20:25.071Z,8.50
2018-11-14T18:22:54.475Z,8.50
2018-11-14T18:25:23.342Z,8.50
2018-11-14T18:27:52.999Z,8.50
2018-11-14T18:30:24.699Z,8.60
2018-11-14T18:32:55.267Z,8.50
2018-11-14T18:35:24.614Z,8.50
2018-11-14T18:37:55.177Z,8.60
2018-11-14T18:40:25.370Z,8.60
2018-11-14T18:42:54.455Z,8.50
2018-11-14T18:45:25.823Z,8.40
2018-11-14T18:47:55.515Z,8.50
2018-11-14T18:50:24.973Z,8.50
2018-11-14T18:52:53.895Z,8.40
2018-11-14T18:55:23.897Z,8.50
2018-11-14T18:57:52.796Z,8.50
2018-11-14T19:00:23.134Z,8.50
2018-11-14T19:02:52.015Z,8.50
2018-11-14T19:05:21.127Z,8.40
2018-11-14T19:07:50.602Z,8.40
2018-11-14T19:10:21.225Z,8.40
2018-11-14T19:12:50.705Z,8.30
2018-11-14T19:15:20.866Z,8.40
2018-11-14T19:17:49.650Z,8.40
2018-11-14T19:20:20.080Z,8.40
2018-11-14T19:22:49.027Z,8.50
2018-11-14T19:25:19.582Z,8.50
2018-11-14T19:27:48.845Z,8.40
2018-11-14T19:30:19.120Z,8.50
2018-11-14T19:32:49.165Z,8.40
2018-11-14T19:35:18.169Z,8.50
2018-11-14T19:37:48.214Z,8.50
2018-11-14T19:40:18.986Z,8.50
2018-11-14T19:42:48.807Z,8.50
2018-11-14T19:45:19.348Z,8.40
2018-11-14T19:47:48.265Z,8.40
2018-11-14T19:50:19.498Z,8.40
2018-11-14T19:52:48.566Z,8.40
2018-11-14T19:55:18.811Z,8.40
2018-11-14T19:57:48.334Z,8.60
2018-11-14T20:00:20.629Z,8.40
2018-11-14T20:02:49.419Z,8.40
2018-11-14T20:05:18.836Z,8.50
2018-11-14T20:07:47.574Z,8.50
2018-11-14T20:10:20.717Z,8.50
2018-11-14T20:12:50.090Z,8.40
2018-11-14T20:15:36.524Z,8.30
2018-11-14T20:18:05.840Z,8.30
2018-11-14T20:20:36.136Z,8.30
2018-11-14T20:23:05.154Z,8.20
2018-11-14T20:25:34.216Z,8.30
2018-11-14T20:28:03.519Z,8.40
2018-11-14T20:30:33.860Z,8.30
2018-11-14T20:33:04.201Z,8.30
2018-11-14T20:35:33.829Z,8.20
2018-11-14T20:38:02.657Z,8.10
2018-11-14T20:40:32.999Z,8.10
2018-11-14T20:43:02.042Z,8.10
2018-11-14T20:45:32.236Z,8.10
2018-11-14T20:48:01.023Z,8.00
2018-11-14T20:50:29.833Z,8.00
2018-11-14T20:53:01.249Z,8.10
2018-11-14T20:55:30.416Z,8.10
2018-11-14T20:57:59.409Z,8.10
2018-11-14T21:00:29.642Z,8.20
2018-11-14T21:02:58.478Z,8.20
2018-11-14T21:05:28.046Z,8.30
2018-11-14T21:07:56.963Z,8.20
2018-11-14T21:10:27.133Z,8.20
2018-11-14T21:12:56.116Z,8.00
2018-11-14T21:15:26.262Z,8.00
2018-11-14T21:17:55.773Z,7.90
2018-11-14T21:20:24.490Z,7.90
2018-11-14T21:22:53.230Z,7.90
2018-11-14T21:25:23.009Z,7.80
2018-11-14T21:27:52.323Z,7.80
2018-11-14T21:30:22.364Z,7.90
2018-11-14T21:32:51.098Z,7.90
2018-11-14T21:35:22.519Z,7.90
2018-11-14T21:37:52.543Z,7.90
2018-11-14T21:40:21.352Z,7.90
2018-11-14T21:42:50.159Z,8.00
2018-11-14T21:45:20.214Z,8.00
2018-11-14T21:47:54.912Z,8.00
2018-11-14T21:50:24.851Z,8.00
2018-11-14T21:52:53.560Z,8.00
2018-11-14T21:55:22.290Z,8.00
2018-11-14T21:57:51.048Z,8.00
2018-11-14T22:00:21.049Z,8.10
2018-11-14T22:02:51.203Z,8.10
2018-11-14T22:05:19.888Z,8.10
2018-11-14T22:07:48.879Z,8.10
2018-11-14T22:10:18.864Z,8.10
2018-11-14T22:12:48.017Z,8.10
2018-11-14T22:15:18.373Z,8.10
2018-11-14T22:17:47.637Z,8.00
2018-11-14T22:20:17.660Z,8.00
2018-11-14T22:22:46.889Z,7.90
2018-11-14T22:25:17.020Z,7.90
2018-11-14T22:27:45.820Z,7.90
2018-11-14T22:30:17.970Z,7.90
2018-11-14T22:32:46.764Z,7.90
2018-11-14T22:35:16.725Z,7.90
2018-11-14T22:37:45.407Z,7.80
2018-11-14T22:40:15.891Z,7.80
2018-11-14T22:42:45.107Z,7.80
2018-11-14T22:45:16.055Z,7.80
2018-11-14T22:47:45.171Z,7.90
2018-11-14T22:50:15.249Z,7.90
2018-11-14T22:52:44.619Z,7.90
2018-11-14T22:55:14.487Z,7.90
2018-11-14T22:57:43.815Z,7.90
2018-11-14T23:00:22.240Z,7.90
2018-11-14T23:02:52.166Z,7.90
2018-11-14T23:05:20.995Z,8.00
2018-11-14T23:07:51.103Z,8.00
2018-11-14T23:10:20.764Z,8.00
2018-11-14T23:12:49.872Z,8.00
2018-11-14T23:15:19.466Z,8.00
2018-11-14T23:17:48.300Z,8.10
2018-11-14T23:20:17.451Z,8.00
2018-11-14T23:22:47.063Z,8.00
2018-11-14T23:25:16.179Z,7.90
2018-11-14T23:27:47.066Z,7.90
2018-11-14T23:30:16.848Z,7.90
2018-11-14T23:32:46.821Z,7.90
2018-11-14T23:35:16.425Z,7.80
2018-11-14T23:37:46.969Z,7.80
2018-11-14T23:40:15.706Z,7.80
2018-11-14T23:42:44.473Z,7.80
2018-11-14T23:45:14.440Z,7.70
2018-11-14T23:47:43.975Z,7.70
2018-11-14T23:50:15.604Z,7.70
2018-11-14T23:52:45.262Z,7.70
2018-11-14T23:55:14.506Z,7.70
2018-11-14T23:57:43.196Z,7.70
